Urb Pastor Felix Rios Lopez, Puerto Rico
Current Conditions -  °F | °C
As of 6:53 PM on Monday 20 Oct 2014 (Local Time) from TJNR Reporting Station
Scattered Clouds Scattered Clouds  
Wind Chill: 79°   Ceiling: Unl
Heat Index: 82°   Visibility: 10mi
Dew Point: 74°   Wind: 5mph
Humidity: 84%   Direction: 50°NE
Pressure: 29.95"   Gusts: NA
Location:  18.2667°N, 65.6476°W
Report Text: TJNR 202253Z AUTO 05004KT 10SM SCT022 SCT028 26/23 A2995 RMK AO2 SLP142 T02610233
Loading
Personal Weather Stations






























Interactive Weather Map New forecast layout! Learn more

10-Day Weather Forecast

Advertisements
Track Severe Weather on mobile